createdAt,value
2019-06-04T00:00:09.052Z,0.00
2019-06-04T00:01:21.905Z,0.00
2019-06-04T00:02:09.035Z,0.00
2019-06-04T00:03:09.020Z,0.00
2019-06-04T00:04:09.010Z,0.00
2019-06-04T00:05:09.010Z,0.00
2019-06-04T00:06:08.991Z,0.00
2019-06-04T00:07:08.977Z,0.00
2019-06-04T00:08:08.968Z,0.00
2019-06-04T00:09:08.960Z,0.00
2019-06-04T00:10:08.952Z,0.00
2019-06-04T00:11:08.940Z,0.00
2019-06-04T00:12:08.930Z,0.00
2019-06-04T00:13:08.917Z,0.00
2019-06-04T00:14:08.915Z,0.00
2019-06-04T00:15:08.900Z,0.00
2019-06-04T00:16:08.904Z,0.00
2019-06-04T00:17:08.882Z,0.00
2019-06-04T00:18:08.894Z,0.00
2019-06-04T00:19:08.864Z,0.00
2019-06-04T00:20:08.847Z,0.00
2019-06-04T00:21:08.849Z,0.00
2019-06-04T00:22:08.839Z,0.00
2019-06-04T00:23:08.819Z,0.00
2019-06-04T00:24:08.815Z,0.00
2019-06-04T00:25:08.798Z,0.00
2019-06-04T00:26:09.691Z,0.00
2019-06-04T00:27:08.774Z,0.00
2019-06-04T00:28:08.769Z,0.00
2019-06-04T00:29:08.760Z,0.00
2019-06-04T00:30:08.774Z,0.00
2019-06-04T00:31:08.735Z,0.00
2019-06-04T00:32:08.727Z,0.00
2019-06-04T00:33:08.713Z,0.00
2019-06-04T00:34:09.197Z,0.00
2019-06-04T00:35:08.896Z,0.00
2019-06-04T00:36:09.076Z,0.00
2019-06-04T00:37:08.681Z,0.00
2019-06-04T00:38:08.992Z,0.00
2019-06-04T00:39:08.963Z,0.00
2019-06-04T00:40:08.845Z,0.00
2019-06-04T00:41:09.243Z,0.00
2019-06-04T00:42:09.013Z,0.00
2019-06-04T00:43:09.684Z,0.00
2019-06-04T00:44:09.261Z,0.00
2019-06-04T00:45:09.301Z,0.00
2019-06-04T00:46:09.359Z,0.00
2019-06-04T00:47:09.437Z,0.00
2019-06-04T00:48:09.482Z,0.00
2019-06-04T00:49:09.354Z,0.00
2019-06-04T00:50:09.343Z,0.00
2019-06-04T00:51:10.122Z,0.00
2019-06-04T00:52:09.373Z,0.00
2019-06-04T00:53:09.492Z,0.00
2019-06-04T00:54:09.233Z,0.00
2019-06-04T00:55:08.502Z,0.00
2019-06-04T00:56:08.618Z,0.00
2019-06-04T00:57:08.476Z,0.00
2019-06-04T00:58:08.765Z,0.00
2019-06-04T00:59:08.466Z,0.00
2019-06-04T01:00:08.927Z,0.00
2019-06-04T01:01:08.437Z,0.00
2019-06-04T01:02:09.076Z,0.00
2019-06-04T01:03:08.413Z,0.00
2019-06-04T01:04:13.390Z,0.00
2019-06-04T01:05:08.395Z,0.00
2019-06-04T01:06:08.393Z,0.00
2019-06-04T01:07:08.377Z,0.00
2019-06-04T01:08:20.654Z,0.00
2019-06-04T01:09:08.355Z,0.00
2019-06-04T01:10:08.343Z,0.00
2019-06-04T01:11:08.337Z,0.00
2019-06-04T01:12:08.330Z,0.00
2019-06-04T01:13:09.923Z,0.00
2019-06-04T01:14:08.648Z,0.00
2019-06-04T01:15:24.676Z,0.00
2019-06-04T01:16:08.601Z,0.00
2019-06-04T01:17:08.685Z,0.00
2019-06-04T01:18:08.819Z,0.00
2019-06-04T01:19:08.940Z,0.00
2019-06-04T01:20:08.847Z,0.00
2019-06-04T01:21:09.201Z,0.00
2019-06-04T01:22:09.104Z,0.00
2019-06-04T01:23:09.479Z,0.00
2019-06-04T01:24:09.366Z,0.00
2019-06-04T01:25:09.310Z,0.00
2019-06-04T01:26:09.598Z,0.00
2019-06-04T01:27:08.170Z,0.00
2019-06-04T01:28:08.159Z,0.00
2019-06-04T01:29:08.163Z,0.00
2019-06-04T01:30:08.138Z,0.00
2019-06-04T01:31:08.531Z,0.00
2019-06-04T01:32:20.314Z,0.00
2019-06-04T01:33:08.456Z,0.00
2019-06-04T01:34:08.517Z,0.00
2019-06-04T01:35:08.415Z,0.00
2019-06-04T01:36:08.699Z,0.00
2019-06-04T01:37:08.527Z,0.00
2019-06-04T01:38:08.833Z,0.00
2019-06-04T01:39:08.926Z,0.00
2019-06-04T01:40:09.332Z,0.00
2019-06-04T01:41:09.305Z,0.00
2019-06-04T01:42:09.027Z,0.00
2019-06-04T01:43:09.281Z,0.00
2019-06-04T01:44:09.417Z,0.00
2019-06-04T01:45:07.988Z,0.00
2019-06-04T01:46:07.997Z,0.00
2019-06-04T01:47:07.966Z,0.00
2019-06-04T01:48:08.107Z,0.00
2019-06-04T01:49:08.952Z,0.00
2019-06-04T01:50:08.229Z,0.00
2019-06-04T01:51:08.431Z,0.00
2019-06-04T01:52:08.220Z,0.00
2019-06-04T01:53:08.626Z,0.00
2019-06-04T01:54:08.426Z,0.00
2019-06-04T01:55:08.648Z,0.00
2019-06-04T01:56:08.797Z,0.00
2019-06-04T01:57:08.695Z,0.00
2019-06-04T01:58:09.746Z,0.00
2019-06-04T01:59:08.982Z,0.00
2019-06-04T02:00:25.202Z,0.00
2019-06-04T02:01:09.118Z,0.00
2019-06-04T02:02:07.810Z,0.00
2019-06-04T02:03:07.800Z,0.00
2019-06-04T02:04:07.796Z,0.00
2019-06-04T02:05:08.340Z,0.00
2019-06-04T02:06:07.858Z,0.00
2019-06-04T02:07:07.853Z,0.00
2019-06-04T02:08:08.778Z,0.00
2019-06-04T02:09:08.163Z,0.00
2019-06-04T02:10:09.704Z,0.00
2019-06-04T02:11:08.362Z,0.00
2019-06-04T02:12:13.265Z,0.00
2019-06-04T02:13:08.623Z,0.00
2019-06-04T02:14:08.832Z,0.00
2019-06-04T02:15:09.132Z,0.00
2019-06-04T02:16:18.603Z,0.00
2019-06-04T02:17:07.722Z,0.00
2019-06-04T02:18:07.962Z,0.00
2019-06-04T02:19:07.763Z,0.00
2019-06-04T02:20:08.031Z,0.00
2019-06-04T02:21:08.106Z,0.00
2019-06-04T02:22:07.943Z,0.00
2019-06-04T02:23:08.373Z,0.00
2019-06-04T02:24:07.832Z,0.00
2019-06-04T02:25:08.114Z,0.00
2019-06-04T02:26:08.410Z,0.00
2019-06-04T02:27:08.228Z,0.00
2019-06-04T02:28:08.516Z,0.00
2019-06-04T02:29:08.242Z,0.00
2019-06-04T02:30:09.146Z,0.00
2019-06-04T02:31:08.430Z,0.00
2019-06-04T02:32:08.565Z,0.00
2019-06-04T02:33:13.861Z,0.00
2019-06-04T02:34:08.595Z,0.00
2019-06-04T02:35:08.628Z,0.00
2019-06-04T02:36:08.780Z,0.00
2019-06-04T02:37:08.652Z,0.00
2019-06-04T02:38:08.756Z,0.00
2019-06-04T02:39:07.965Z,0.00
2019-06-04T02:40:07.414Z,0.00
2019-06-04T02:41:08.160Z,0.00
2019-06-04T02:42:07.394Z,0.00
2019-06-04T02:43:08.244Z,0.00
2019-06-04T02:44:07.694Z,0.00
2019-06-04T02:45:08.289Z,0.00
2019-06-04T02:46:08.351Z,0.00
2019-06-04T02:47:08.395Z,0.00
2019-06-04T02:48:07.710Z,0.00
2019-06-04T02:49:07.318Z,0.00
2019-06-04T02:50:08.009Z,0.00
2019-06-04T02:51:07.298Z,0.00
2019-06-04T02:52:07.627Z,0.00
2019-06-04T02:53:07.322Z,0.00
2019-06-04T02:54:07.557Z,0.00
2019-06-04T02:55:07.438Z,0.00
2019-06-04T02:56:08.069Z,0.00
2019-06-04T02:57:07.691Z,0.00
2019-06-04T02:58:07.992Z,0.00
2019-06-04T02:59:08.069Z,0.00
2019-06-04T03:00:08.243Z,0.00
2019-06-04T03:01:08.881Z,0.00
2019-06-04T03:02:08.328Z,0.00
2019-06-04T03:03:22.275Z,0.00
2019-06-04T03:04:08.437Z,0.00
2019-06-04T03:05:07.146Z,0.00
2019-06-04T03:06:07.173Z,0.00
2019-06-04T03:07:07.130Z,0.00
2019-06-04T03:08:07.119Z,0.00
2019-06-04T03:09:07.107Z,0.00
2019-06-04T03:10:07.095Z,0.00
2019-06-04T03:11:07.092Z,0.00
2019-06-04T03:12:07.080Z,0.00
2019-06-04T03:13:07.068Z,0.00
2019-06-04T03:14:07.055Z,0.00
2019-06-04T03:15:07.051Z,0.00
2019-06-04T03:16:07.032Z,0.00
2019-06-04T03:17:07.023Z,0.00
2019-06-04T03:18:07.022Z,0.00
2019-06-04T03:19:07.004Z,0.00
2019-06-04T03:20:06.996Z,0.00
2019-06-04T03:21:06.980Z,0.00
2019-06-04T03:22:06.968Z,0.00
2019-06-04T03:23:06.964Z,0.00
2019-06-04T03:24:06.946Z,0.00
2019-06-04T03:25:06.935Z,0.00
2019-06-04T03:26:06.934Z,0.00
2019-06-04T03:27:06.919Z,0.00
2019-06-04T03:28:06.909Z,0.00
2019-06-04T03:29:06.917Z,0.00
2019-06-04T03:30:06.884Z,0.00
2019-06-04T03:31:06.878Z,0.00
2019-06-04T03:32:06.861Z,0.00
2019-06-04T03:33:06.865Z,0.00
2019-06-04T03:34:06.850Z,0.00
2019-06-04T03:35:06.855Z,0.00
2019-06-04T03:36:06.825Z,0.00
2019-06-04T03:37:06.811Z,0.00
2019-06-04T03:38:06.807Z,0.00
2019-06-04T03:39:06.794Z,0.00
2019-06-04T03:40:06.779Z,0.00
2019-06-04T03:41:06.763Z,0.00
2019-06-04T03:42:06.756Z,0.00
2019-06-04T03:43:06.741Z,0.00
2019-06-04T03:44:06.741Z,0.00
2019-06-04T03:45:06.719Z,0.00
2019-06-04T03:46:07.127Z,0.00
2019-06-04T03:47:06.707Z,0.00
2019-06-04T03:48:06.701Z,0.00
2019-06-04T03:49:06.687Z,0.00
2019-06-04T03:50:06.676Z,0.00
2019-06-04T03:51:06.667Z,0.00
2019-06-04T03:52:06.652Z,0.00
2019-06-04T03:53:06.644Z,0.00
2019-06-04T03:54:06.624Z,0.00
2019-06-04T03:55:06.615Z,0.00
2019-06-04T03:56:06.610Z,0.00
2019-06-04T03:57:06.601Z,0.00
2019-06-04T03:58:06.588Z,0.00
2019-06-04T03:59:06.579Z,0.00
2019-06-04T04:00:06.571Z,0.00
2019-06-04T04:01:06.563Z,0.00
2019-06-04T04:02:06.552Z,0.00
2019-06-04T04:03:06.946Z,0.00
2019-06-04T04:04:08.416Z,0.00
2019-06-04T04:05:06.514Z,0.00
2019-06-04T04:06:06.500Z,0.00
2019-06-04T04:07:06.490Z,0.00
2019-06-04T04:08:06.497Z,0.00
2019-06-04T04:09:06.473Z,0.00
2019-06-04T04:10:06.459Z,0.00
2019-06-04T04:11:06.450Z,0.00
2019-06-04T04:12:06.438Z,0.00
2019-06-04T04:13:06.430Z,0.00
2019-06-04T04:14:07.343Z,0.00
2019-06-04T04:15:06.414Z,0.00
2019-06-04T04:16:06.400Z,0.00
2019-06-04T04:17:06.383Z,5.63
2019-06-04T04:18:06.375Z,5.63
2019-06-04T04:19:06.378Z,5.63
2019-06-04T04:20:06.356Z,5.63
2019-06-04T04:21:06.349Z,5.63
2019-06-04T04:22:06.332Z,5.63
2019-06-04T04:23:06.324Z,5.63
2019-06-04T04:24:06.309Z,5.63
2019-06-04T04:25:06.317Z,5.63
2019-06-04T04:26:06.293Z,5.63
2019-06-04T04:27:06.280Z,5.63
2019-06-04T04:28:06.266Z,5.63
2019-06-04T04:29:06.261Z,5.63
2019-06-04T04:30:06.249Z,5.63
2019-06-04T04:31:06.233Z,5.63
2019-06-04T04:32:06.232Z,5.63
2019-06-04T04:33:06.224Z,5.63
2019-06-04T04:34:06.205Z,5.63
2019-06-04T04:35:06.198Z,5.63
2019-06-04T04:36:06.191Z,5.63
2019-06-04T04:37:06.176Z,5.63
2019-06-04T04:38:06.163Z,5.63
2019-06-04T04:39:06.151Z,5.63
2019-06-04T04:40:06.141Z,5.63
2019-06-04T04:41:06.129Z,5.63
2019-06-04T04:42:06.119Z,5.63
2019-06-04T04:43:06.114Z,11.25
2019-06-04T04:44:06.104Z,11.25
2019-06-04T04:45:06.096Z,11.25
2019-06-04T04:46:06.082Z,11.25
2019-06-04T04:47:06.070Z,11.25
2019-06-04T04:48:06.067Z,11.25
2019-06-04T04:49:06.050Z,11.25
2019-06-04T04:50:06.044Z,11.25
2019-06-04T04:51:06.028Z,11.25
2019-06-04T04:52:06.016Z,11.25
2019-06-04T04:53:06.009Z,11.25
2019-06-04T04:54:06.033Z,11.25
2019-06-04T04:55:05.989Z,11.25
2019-06-04T04:56:05.985Z,11.25
2019-06-04T04:57:05.974Z,11.25
2019-06-04T04:58:05.959Z,11.25
2019-06-04T04:59:05.950Z,11.25
2019-06-04T05:00:05.935Z,11.25
2019-06-04T05:01:05.930Z,11.25
2019-06-04T05:02:05.918Z,11.25
2019-06-04T05:03:05.904Z,11.25
2019-06-04T05:04:05.897Z,11.25
2019-06-04T05:05:05.883Z,11.25
2019-06-04T05:06:05.878Z,11.25
2019-06-04T05:07:05.867Z,11.25
2019-06-04T05:08:05.857Z,11.25
2019-06-04T05:09:05.846Z,11.25
2019-06-04T05:10:05.851Z,11.25
2019-06-04T05:11:05.822Z,11.25
2019-06-04T05:12:05.811Z,11.25
2019-06-04T05:13:05.806Z,11.25
2019-06-04T05:14:05.798Z,11.25
2019-06-04T05:15:05.784Z,11.25
2019-06-04T05:16:05.781Z,11.25
2019-06-04T05:17:05.771Z,11.25
2019-06-04T05:18:05.753Z,11.25
2019-06-04T05:19:06.515Z,11.25
2019-06-04T05:20:05.735Z,11.25
2019-06-04T05:21:05.726Z,11.25
2019-06-04T05:22:05.709Z,11.25
2019-06-04T05:23:05.700Z,11.25
2019-06-04T05:24:05.696Z,11.25
2019-06-04T05:25:05.685Z,11.25
2019-06-04T05:26:05.679Z,11.25
2019-06-04T05:27:05.666Z,11.25
2019-06-04T05:28:05.648Z,11.25
2019-06-04T05:29:05.641Z,11.25
2019-06-04T05:30:05.866Z,11.25
2019-06-04T05:31:05.621Z,11.25
2019-06-04T05:32:05.610Z,11.25
2019-06-04T05:33:05.605Z,11.25
2019-06-04T05:34:05.590Z,11.25
2019-06-04T05:35:05.719Z,11.25
2019-06-04T05:36:05.571Z,11.25
2019-06-04T05:37:05.566Z,11.25
2019-06-04T05:38:05.553Z,11.25
2019-06-04T05:39:05.543Z,11.25
2019-06-04T05:40:05.536Z,11.25
2019-06-04T05:41:05.525Z,11.25
2019-06-04T05:42:05.514Z,11.25
2019-06-04T05:43:05.500Z,11.25
2019-06-04T05:44:05.496Z,11.25
2019-06-04T05:45:05.943Z,11.25
2019-06-04T05:46:05.472Z,11.25
2019-06-04T05:47:05.475Z,11.25
2019-06-04T05:48:05.460Z,11.25
2019-06-04T05:49:06.112Z,11.25
2019-06-04T05:50:05.441Z,11.25
2019-06-04T05:51:05.417Z,11.25
2019-06-04T05:52:05.415Z,11.25
2019-06-04T05:53:05.398Z,11.25
2019-06-04T05:54:05.422Z,11.25
2019-06-04T05:55:05.391Z,11.25
2019-06-04T05:56:05.377Z,11.25
2019-06-04T05:57:05.369Z,11.25
2019-06-04T05:58:05.350Z,11.25
2019-06-04T05:59:05.350Z,16.88
2019-06-04T06:00:05.340Z,28.13
2019-06-04T06:01:05.327Z,33.75
2019-06-04T06:02:05.323Z,33.75
2019-06-04T06:03:05.297Z,33.75
2019-06-04T06:04:05.290Z,33.75
2019-06-04T06:05:22.731Z,33.75
2019-06-04T06:06:05.274Z,33.75
2019-06-04T06:07:05.260Z,33.75
2019-06-04T06:08:05.256Z,33.75
2019-06-04T06:09:05.245Z,33.75
2019-06-04T06:10:05.236Z,39.38
2019-06-04T06:11:05.222Z,39.38
2019-06-04T06:12:05.211Z,39.38
2019-06-04T06:13:05.233Z,39.38
2019-06-04T06:14:05.198Z,39.38
2019-06-04T06:15:08.851Z,39.38
2019-06-04T06:16:05.188Z,39.38
2019-06-04T06:17:05.203Z,39.38
2019-06-04T06:18:05.149Z,39.38
2019-06-04T06:19:05.144Z,39.38
2019-06-04T06:20:05.136Z,39.38
2019-06-04T06:21:05.548Z,39.38
2019-06-04T06:22:05.121Z,39.38
2019-06-04T06:23:11.548Z,39.38
2019-06-04T06:24:05.099Z,39.38
2019-06-04T06:25:05.270Z,39.38
2019-06-04T06:26:05.077Z,39.38
2019-06-04T06:27:05.077Z,45.00
2019-06-04T06:28:05.062Z,45.00
2019-06-04T06:29:05.048Z,45.00
2019-06-04T06:30:05.049Z,45.00
2019-06-04T06:31:05.029Z,45.00
2019-06-04T06:32:05.016Z,45.00
2019-06-04T06:33:05.018Z,45.00
2019-06-04T06:34:05.007Z,45.00
2019-06-04T06:35:05.493Z,45.00
2019-06-04T06:36:04.993Z,45.00
2019-06-04T06:37:04.975Z,45.00
2019-06-04T06:38:04.970Z,45.00
2019-06-04T06:39:04.954Z,45.00
2019-06-04T06:40:04.948Z,50.63
2019-06-04T06:41:04.942Z,50.63
2019-06-04T06:42:05.948Z,50.63
2019-06-04T06:43:04.920Z,50.63
2019-06-04T06:44:04.915Z,50.63
2019-06-04T06:45:04.899Z,50.63
2019-06-04T06:46:04.896Z,50.63
2019-06-04T06:47:04.885Z,50.63
2019-06-04T06:48:05.095Z,50.63
2019-06-04T06:49:04.876Z,50.63
2019-06-04T06:50:04.868Z,50.63
2019-06-04T06:51:04.861Z,50.63
2019-06-04T06:52:05.067Z,50.63
2019-06-04T06:53:04.834Z,50.63
2019-06-04T06:54:04.824Z,50.63
2019-06-04T06:55:04.813Z,56.25
2019-06-04T06:56:04.807Z,56.25
2019-06-04T06:57:04.801Z,56.25
2019-06-04T06:58:04.790Z,56.25
2019-06-04T06:59:04.775Z,56.25
2019-06-04T07:00:04.774Z,56.25
2019-06-04T07:01:04.764Z,56.25
2019-06-04T07:02:23.446Z,56.25
2019-06-04T07:03:04.747Z,56.25
2019-06-04T07:04:04.738Z,56.25
2019-06-04T07:05:04.730Z,56.25
2019-06-04T07:06:04.728Z,56.25
2019-06-04T07:07:04.715Z,56.25
2019-06-04T07:08:04.710Z,56.25
2019-06-04T07:09:04.698Z,56.25
2019-06-04T07:10:04.689Z,61.88
2019-06-04T07:11:08.578Z,61.88
2019-06-04T07:12:04.671Z,61.88
2019-06-04T07:13:04.662Z,61.88
2019-06-04T07:14:04.654Z,61.88
2019-06-04T07:15:04.644Z,61.88
2019-06-04T07:16:04.651Z,61.88
2019-06-04T07:17:04.631Z,61.88
2019-06-04T07:18:04.647Z,61.88
2019-06-04T07:19:04.618Z,61.88
2019-06-04T07:20:04.604Z,61.88
2019-06-04T07:21:04.604Z,61.88
2019-06-04T07:22:04.597Z,61.88
2019-06-04T07:23:04.584Z,61.88
2019-06-04T07:24:04.573Z,61.88
2019-06-04T07:25:05.076Z,61.88
2019-06-04T07:26:04.554Z,61.88
2019-06-04T07:27:04.579Z,61.88
2019-06-04T07:28:04.645Z,61.88
2019-06-04T07:29:04.531Z,61.88
2019-06-04T07:30:04.525Z,61.88
2019-06-04T07:31:04.535Z,61.88
2019-06-04T07:32:04.510Z,61.88
2019-06-04T07:33:04.498Z,61.88
2019-06-04T07:34:04.504Z,61.88
2019-06-04T07:35:04.487Z,61.88
2019-06-04T07:36:21.674Z,61.88
2019-06-04T07:37:04.474Z,67.50
2019-06-04T07:38:04.460Z,67.50
2019-06-04T07:39:04.456Z,67.50
2019-06-04T07:40:06.150Z,67.50
2019-06-04T07:41:04.442Z,67.50
2019-06-04T07:42:04.430Z,67.50
2019-06-04T07:43:04.427Z,67.50
2019-06-04T07:44:04.417Z,67.50
2019-06-04T07:45:04.412Z,67.50
2019-06-04T07:46:04.397Z,67.50
2019-06-04T07:47:04.394Z,67.50
2019-06-04T07:48:04.385Z,67.50
2019-06-04T07:49:04.378Z,67.50
2019-06-04T07:50:04.377Z,67.50
2019-06-04T07:51:04.361Z,67.50
2019-06-04T07:52:04.352Z,67.50
2019-06-04T07:53:04.348Z,67.50
2019-06-04T07:54:04.470Z,67.50
2019-06-04T07:55:04.332Z,67.50
2019-06-04T07:56:06.073Z,67.50
2019-06-04T07:57:04.309Z,67.50
2019-06-04T07:58:04.312Z,67.50
2019-06-04T07:59:04.296Z,73.13
2019-06-04T08:00:04.289Z,73.13
2019-06-04T08:01:04.285Z,73.13
2019-06-04T08:02:08.172Z,73.13
2019-06-04T08:03:04.269Z,73.13
2019-06-04T08:04:04.263Z,73.13
2019-06-04T08:05:04.258Z,73.13
2019-06-04T08:06:04.247Z,73.13
2019-06-04T08:07:09.253Z,73.13
2019-06-04T08:08:04.229Z,73.13
2019-06-04T08:09:04.214Z,73.13
2019-06-04T08:10:04.209Z,73.13
2019-06-04T08:11:04.277Z,78.75
2019-06-04T08:12:04.199Z,78.75
2019-06-04T08:13:04.196Z,78.75
2019-06-04T08:14:04.182Z,78.75
2019-06-04T08:15:04.173Z,78.75
2019-06-04T08:16:04.167Z,78.75
2019-06-04T08:17:04.165Z,78.75
2019-06-04T08:18:04.148Z,78.75
2019-06-04T08:19:04.146Z,78.75
2019-06-04T08:20:06.651Z,78.75
2019-06-04T08:21:04.123Z,78.75
2019-06-04T08:22:04.120Z,78.75
2019-06-04T08:23:04.114Z,78.75
2019-06-04T08:24:04.100Z,78.75
2019-06-04T08:25:04.111Z,78.75
2019-06-04T08:26:04.095Z,78.75
2019-06-04T08:27:04.084Z,78.75
2019-06-04T08:28:04.078Z,78.75
2019-06-04T08:29:04.072Z,78.75
2019-06-04T08:30:04.059Z,78.75
2019-06-04T08:31:04.053Z,78.75
2019-06-04T08:32:04.051Z,78.75
2019-06-04T08:33:04.038Z,84.38
2019-06-04T08:34:04.035Z,84.38
2019-06-04T08:35:04.024Z,84.38
2019-06-04T08:36:04.020Z,84.38
2019-06-04T08:37:08.042Z,84.38
2019-06-04T08:38:04.000Z,84.38
2019-06-04T08:39:04.015Z,84.38
2019-06-04T08:40:03.998Z,84.38
2019-06-04T08:41:03.991Z,84.38
2019-06-04T08:42:03.982Z,84.38
2019-06-04T08:43:04.026Z,84.38
2019-06-04T08:44:03.959Z,84.38
2019-06-04T08:45:05.114Z,84.38
2019-06-04T08:46:03.943Z,84.38
2019-06-04T08:47:03.946Z,84.38
2019-06-04T08:48:03.936Z,73.13
2019-06-04T08:49:03.926Z,73.13
2019-06-04T08:50:03.914Z,73.13
2019-06-04T08:51:03.907Z,73.13
2019-06-04T08:52:03.905Z,73.13
2019-06-04T08:53:03.900Z,73.13
2019-06-04T08:54:03.892Z,73.13
2019-06-04T08:55:03.878Z,73.13
2019-06-04T08:56:03.874Z,84.38
2019-06-04T08:57:03.872Z,84.38
2019-06-04T08:58:03.865Z,84.38
2019-06-04T08:59:03.854Z,90.00
2019-06-04T09:00:03.852Z,90.00
2019-06-04T09:01:03.839Z,90.00
2019-06-04T09:02:03.836Z,90.00
2019-06-04T09:03:03.822Z,90.00
2019-06-04T09:04:03.819Z,90.00
2019-06-04T09:05:03.809Z,78.75
2019-06-04T09:06:03.807Z,78.75
2019-06-04T09:07:03.793Z,78.75
2019-06-04T09:08:03.793Z,78.75
2019-06-04T09:09:03.784Z,78.75
2019-06-04T09:10:05.854Z,78.75
2019-06-04T09:11:03.783Z,84.38
2019-06-04T09:12:03.763Z,84.38
2019-06-04T09:13:03.754Z,84.38
2019-06-04T09:14:03.749Z,84.38
2019-06-04T09:15:03.739Z,84.38
2019-06-04T09:16:03.745Z,84.38
2019-06-04T09:17:03.734Z,90.00
2019-06-04T09:18:03.728Z,78.75
2019-06-04T09:19:03.713Z,84.38
2019-06-04T09:20:03.753Z,78.75
2019-06-04T09:21:03.704Z,78.75
2019-06-04T09:22:03.695Z,78.75
2019-06-04T09:23:03.694Z,78.75
2019-06-04T09:24:03.684Z,78.75
2019-06-04T09:25:03.679Z,84.38
2019-06-04T09:26:03.669Z,84.38
2019-06-04T09:27:07.387Z,84.38
2019-06-04T09:28:03.655Z,84.38
2019-06-04T09:29:03.653Z,84.38
2019-06-04T09:30:03.643Z,90.00
2019-06-04T09:31:04.274Z,90.00
2019-06-04T09:32:03.633Z,90.00
2019-06-04T09:33:03.622Z,90.00
2019-06-04T09:34:03.617Z,90.00
2019-06-04T09:35:03.658Z,90.00
2019-06-04T09:36:03.623Z,90.00
2019-06-04T09:37:03.676Z,90.00
2019-06-04T09:38:09.634Z,90.00
2019-06-04T09:39:03.581Z,90.00
2019-06-04T09:40:03.585Z,90.00
2019-06-04T09:41:03.565Z,90.00
2019-06-04T09:42:03.560Z,90.00
2019-06-04T09:43:03.554Z,84.38
2019-06-04T09:44:03.549Z,90.00
2019-06-04T09:45:03.542Z,90.00
2019-06-04T09:46:03.537Z,90.00
2019-06-04T09:47:03.534Z,90.00
2019-06-04T09:48:03.522Z,90.00
2019-06-04T09:49:03.529Z,95.63
2019-06-04T09:50:03.509Z,90.00
2019-06-04T09:51:03.554Z,90.00
2019-06-04T09:52:03.497Z,90.00
2019-06-04T09:53:03.490Z,90.00
2019-06-04T09:54:03.482Z,90.00
2019-06-04T09:55:03.791Z,90.00
2019-06-04T09:56:03.470Z,90.00
2019-06-04T09:57:03.467Z,90.00
2019-06-04T09:58:28.632Z,90.00
2019-06-04T09:59:03.451Z,95.63
2019-06-04T10:00:03.445Z,90.00
2019-06-04T10:01:06.214Z,90.00
2019-06-04T10:02:03.439Z,95.63
2019-06-04T10:03:04.412Z,95.63
2019-06-04T10:04:03.423Z,90.00
2019-06-04T10:05:03.433Z,90.00
2019-06-04T10:06:03.411Z,90.00
2019-06-04T10:07:03.408Z,90.00
2019-06-04T10:08:11.731Z,95.63
2019-06-04T10:09:03.396Z,95.63
2019-06-04T10:10:03.383Z,95.63
2019-06-04T10:11:03.375Z,95.63
2019-06-04T10:12:05.918Z,95.63
2019-06-04T10:13:03.369Z,95.63
2019-06-04T10:14:03.362Z,95.63
2019-06-04T10:15:03.354Z,95.63
2019-06-04T10:16:03.348Z,95.63
2019-06-04T10:17:03.342Z,95.63
2019-06-04T10:18:03.336Z,95.63
2019-06-04T10:19:03.332Z,78.75
2019-06-04T10:20:03.323Z,95.63
2019-06-04T10:21:03.317Z,95.63
2019-06-04T10:22:03.330Z,101.25
2019-06-04T10:23:03.398Z,95.63
2019-06-04T10:24:03.300Z,95.63
2019-06-04T10:25:03.296Z,95.63
2019-06-04T10:26:23.451Z,95.63
2019-06-04T10:27:03.286Z,101.25
2019-06-04T10:28:03.319Z,101.25
2019-06-04T10:29:08.873Z,101.25
2019-06-04T10:30:03.268Z,101.25
2019-06-04T10:31:03.261Z,101.25
2019-06-04T10:32:03.255Z,61.88
2019-06-04T10:33:08.552Z,106.88
2019-06-04T10:34:03.242Z,106.88
2019-06-04T10:35:03.245Z,101.25
2019-06-04T10:36:03.229Z,101.25
2019-06-04T10:37:19.463Z,101.25
2019-06-04T10:38:03.219Z,90.00
2019-06-04T10:39:03.212Z,78.75
2019-06-04T10:40:03.203Z,50.63
2019-06-04T10:41:03.207Z,95.63
2019-06-04T10:42:03.198Z,106.88
2019-06-04T10:43:03.201Z,78.75
2019-06-04T10:44:03.189Z,45.00
2019-06-04T10:45:06.989Z,39.38
2019-06-04T10:46:03.187Z,112.50
2019-06-04T10:47:03.180Z,84.38
2019-06-04T10:48:03.164Z,106.88
2019-06-04T10:49:03.153Z,112.50
2019-06-04T10:50:03.154Z,106.88
2019-06-04T10:51:03.155Z,106.88
2019-06-04T10:52:03.143Z,112.50
2019-06-04T10:53:03.141Z,112.50
2019-06-04T10:54:03.144Z,106.88
2019-06-04T10:55:03.129Z,112.50
2019-06-04T10:56:03.125Z,112.50
2019-06-04T10:57:03.113Z,106.88
2019-06-04T10:58:03.107Z,112.50
2019-06-04T10:59:03.095Z,112.50
2019-06-04T11:00:03.101Z,112.50
2019-06-04T11:01:03.135Z,112.50
2019-06-04T11:02:03.082Z,112.50
2019-06-04T11:03:03.080Z,112.50
2019-06-04T11:04:03.077Z,112.50
2019-06-04T11:05:03.073Z,112.50
2019-06-04T11:06:03.068Z,112.50
2019-06-04T11:07:04.171Z,112.50
2019-06-04T11:08:03.057Z,112.50
2019-06-04T11:09:10.322Z,112.50
2019-06-04T11:10:03.046Z,50.63
2019-06-04T11:11:03.043Z,112.50
2019-06-04T11:12:03.039Z,50.63
2019-06-04T11:13:03.027Z,112.50
2019-06-04T11:14:04.282Z,112.50
2019-06-04T11:15:03.022Z,112.50
2019-06-04T11:16:03.017Z,112.50
2019-06-04T11:17:03.016Z,118.13
2019-06-04T11:18:03.010Z,112.50
2019-06-04T11:19:03.004Z,112.50
2019-06-04T11:20:03.075Z,118.13
2019-06-04T11:21:02.984Z,73.13
2019-06-04T11:22:02.994Z,118.13
2019-06-04T11:23:02.971Z,123.75
2019-06-04T11:24:02.979Z,39.38
2019-06-04T11:25:02.982Z,50.63
2019-06-04T11:26:02.995Z,123.75
2019-06-04T11:27:02.968Z,123.75
2019-06-04T11:28:02.969Z,50.63
2019-06-04T11:29:02.952Z,67.50
2019-06-04T11:30:02.955Z,67.50
2019-06-04T11:31:02.948Z,45.00
2019-06-04T11:32:02.950Z,135.00
2019-06-04T11:33:02.930Z,129.38
2019-06-04T11:34:23.042Z,67.50
2019-06-04T11:35:02.913Z,118.13
2019-06-04T11:36:05.073Z,135.00
2019-06-04T11:37:02.906Z,135.00
2019-06-04T11:38:03.026Z,135.00
2019-06-04T11:39:17.833Z,45.00
2019-06-04T11:40:02.895Z,129.38
2019-06-04T11:41:02.887Z,135.00
2019-06-04T11:42:02.883Z,135.00
2019-06-04T11:43:10.825Z,135.00
2019-06-04T11:44:02.882Z,84.38
2019-06-04T11:45:21.922Z,140.63
2019-06-04T11:46:02.861Z,140.63
2019-06-04T11:47:02.890Z,84.38
2019-06-04T11:48:02.854Z,50.63
2019-06-04T11:49:02.850Z,45.00
2019-06-04T11:50:02.841Z,90.00
2019-06-04T11:51:02.890Z,45.00
2019-06-04T11:52:02.830Z,56.25
2019-06-04T11:53:02.828Z,146.25
2019-06-04T11:54:03.412Z,146.25
2019-06-04T11:55:02.818Z,146.25
2019-06-04T11:56:02.833Z,146.25
2019-06-04T11:57:02.813Z,151.88
2019-06-04T11:58:02.807Z,84.38
2019-06-04T11:59:03.380Z,118.13
2019-06-04T12:00:03.137Z,146.25
2019-06-04T12:01:14.723Z,146.25
2019-06-04T12:02:03.037Z,151.88
2019-06-04T12:03:03.745Z,73.13
2019-06-04T12:04:02.972Z,146.25
2019-06-04T12:05:05.731Z,146.25
2019-06-04T12:06:02.987Z,146.25
2019-06-04T12:07:04.527Z,146.25
2019-06-04T12:08:03.798Z,146.25
2019-06-04T12:09:03.643Z,45.00
2019-06-04T12:10:03.418Z,45.00
2019-06-04T12:11:03.458Z,45.00
2019-06-04T12:12:40.917Z,45.00
2019-06-04T12:13:03.457Z,45.00
2019-06-04T12:14:03.359Z,50.63
2019-06-04T12:15:04.503Z,50.63
2019-06-04T12:16:03.968Z,50.63
2019-06-04T12:17:04.362Z,50.63
2019-06-04T12:18:04.799Z,56.25
2019-06-04T12:19:04.222Z,67.50
2019-06-04T12:20:04.026Z,163.13
2019-06-04T12:21:13.937Z,56.25
2019-06-04T12:22:03.949Z,56.25
2019-06-04T12:24:03.967Z,157.50
2019-06-04T12:25:05.864Z,157.50
2019-06-04T12:26:04.380Z,157.50
2019-06-04T12:27:02.927Z,157.50
2019-06-04T12:28:03.315Z,157.50
2019-06-04T12:29:02.882Z,151.88
2019-06-04T12:30:02.785Z,151.88
2019-06-04T12:31:02.698Z,151.88
2019-06-04T12:32:03.189Z,151.88
2019-06-04T12:33:03.146Z,157.50
2019-06-04T12:34:04.456Z,157.50
2019-06-04T12:35:03.218Z,157.50
2019-06-04T12:36:03.029Z,101.25
2019-06-04T12:37:03.101Z,151.88
2019-06-04T12:38:04.374Z,67.50
2019-06-04T12:39:03.090Z,118.13
2019-06-04T12:40:04.144Z,168.75
2019-06-04T12:41:03.279Z,163.13
2019-06-04T12:42:03.090Z,163.13
2019-06-04T12:43:03.358Z,168.75
2019-06-04T12:44:11.145Z,118.13
2019-06-04T12:45:04.025Z,61.88
2019-06-04T12:46:05.089Z,129.38
2019-06-04T12:47:11.092Z,163.13
2019-06-04T12:48:03.663Z,163.13
2019-06-04T12:49:04.232Z,73.13
2019-06-04T12:50:02.916Z,174.38
2019-06-04T12:51:03.736Z,168.75
2019-06-04T12:52:04.341Z,168.75
2019-06-04T12:53:03.470Z,129.38
2019-06-04T12:54:04.188Z,67.50
2019-06-04T12:55:03.658Z,61.88
2019-06-04T12:56:04.101Z,78.75
2019-06-04T12:57:03.674Z,163.13
2019-06-04T12:58:03.751Z,168.75
2019-06-04T12:59:03.903Z,168.75